Relevés horaires Titlis (Suisse)


Relevés horaires à Titlis - Lundi 10 Mai 2021
Heure UTC1 Température [°C] Vent [km/h] Hum. [%] Pres.4 [hPa] Visi. [Km] Nébu. [octa] Préc.5 [mm] Cond.
2m. Res. Ros. Dir.2 Vit. Moy. Raf.3
23:00 -1.9 -11.8 -1.9 S 66.7 -- 101.9 100 700(-1.1/3h) -- -- -- --
22:00 -1.5 -10.7 -1.6 S 57.4 -- 94.5 99 700(0.1/3h) -- -- -- --
21:00 -1.5 -10.8 -1.5 S 59.3 -- 118.5 100 700(-0.5/3h) -- -- -- --
20:00 -1.5 -10.4 -1.6 S 53.7 -- 118.5 99 700(0.2/3h) -- -- -- --
19:00 -1.1 -9.1 -1.8 SSE 42.6 -- 109.3 95 700(-1.0/3h) -- -- -- --
18:00 -0.8 -8.8 -1.8 SSE 44.4 -- 138.9 93 700(-0.5/3h) -- -- -- --
17:00 -1.1 -10 -2.4 SSE 55.6 -- 101.9 91 700(-1.8/3h) -- -- -- --
16:00 -0.2 -8.4 -2.3 S 50.0 -- 138.9 86 700(-0.9/3h) -- -- -- --
15:00 -0.2 -8.3 -2.5 SSE 48.2 -- 107.4 84 700(-1.4/3h) -- -- -- --
14:00 -0.8 -8.5 -2.3 SSE 40.7 -- 98.2 90 700(-0.8/3h) -- -- -- --
13:00 0.4 -7.6 -2.7 S 50.0 -- 103.7 80 700(-0.8/3h) -- -- -- --
12:00 -0.4 -8.9 -2.4 S 53.7 -- 109.3 86 700(-0.1/3h) -- -- -- --
11:00 0.4 -8.4 -3.0 SSO 63.0 -- 105.6 78 700(0.0/3h) -- -- -- --
10:00 0.3 -7.6 -2.8 SSO 48.2 -- 96.3 80 700(0.4/3h) -- -- -- --
09:00 -0.3 -9.5 -3.1 SSO 64.8 -- 109.3 81 700(0.1/3h) -- -- -- --
08:00 -1.5 -9.9 -2.1 S 46.3 -- 85.2 96 700(1.4/3h) -- -- -- --
07:00 -1.2 -10.4 -2.6 SSE 59.3 -- 90.7 90 700(1.0/3h) -- -- -- --
06:00 -1.7 -11.1 -2.3 SSE 59.3 -- 127.8 96 700(0.1/3h) -- -- -- --
05:00 -1.0 -10.8 -2.8 SSE 72.2 -- 96.3 88 700(0.1/3h) -- -- -- --
04:00 -1.0 -10.5 -3.1 SSE 66.7 -- 92.6 86 700(-1.2/3h) -- -- -- --
03:00 -1.3 -10 -2.5 S 51.9 -- 127.8 92 700(-0.7/3h) -- -- -- --
02:00 -1.5 -10.8 -2.5 S 59.3 -- 127.8 93 700(-1.8/3h) -- -- -- --
01:00 -1.0 -8.9 -2.7 S 42.6 -- 113.0 88 700(0.0/3h) -- -- -- --
00:00 -0.6 -9.7 -2.7 S 61.1 -- 101.9 86 700 -- -- -- --

1 Coordinated Universal Time. Actuellement il est 07:00 locale et 05:00 UTC.

2 Le vent souffle depuis la direction indiquée vers la direction oposée.

3 Les rafales max. sont disponible 40 min après l'heure du relevé.

4 Pour les stations d'altitude (plus de 600m) le géopotentiel du niveau le plus proche de la pression obligatoire est indiqué.

5 Les stations disposant d'un diffuseur peuvent indiquer "trace". Cela signifie que des précipitations ont touchés le sol mais que la quantité est inférieure à 0.1 mm.

Copyright

Les données affichées sur cette page sont la propriété exclusive de Météo Suisse.

Récapitulatif de la journée
Température [°C] Vent [km/h] Ensoleillement4 [h] Precipitations totale5 [mm] Pression [Hpa]
Min1 Max.2 Moy.3 Max. Min Max.
-1.9 0.7 0 138.9 1 h 12 min 0 700.0 700.0

1 Température minimale relevée entre 18:00 UTC la veille et 18:00 UTC le jour donné.

2 Température maximale relevée entre 06:00 UTC le jour donné et 06:00 UTC le lendemain.

3 Vent moyen de la journée basé sur les relevés horaires.

4 Ensoleillement en heures relevé entre 06:00 UTC la veille et 06:00 UTC le jour donné.

5 Précipitations totales tombées entre 06:00 UTC la jour donné et 06:00 UTC le lendemain.

Graphiques horaires